Etusivu
METAR-TAF:

METAR-TAF

Lentoasemat :

Little Falls/Morrison County Airport (Lindbergh Field)

Little Falls, Minnesota, Yhdysvallat

Leveyspiiri: 45-57N, Pituuspiiri: 094-21W, korkeus merenpinnasta: 342 m

Tämänhetkinen sää

Tämä raportti tehtiin 21 minuuttia sitten, kello 10.16 UTC
Tuuli 5 kn luoteesta
Lämpötila 3°C
Kosteus 81%
Ilmanpaine 1017 hPa
Näkyvyys: 16.1 km
selkeää

METAR: KLXL 261016Z AUTO 31005KT 10SM CLR 03/00 A3003 RMK AO2

Aika: 05:37 (10:37 UTC)


TAF: puuttuu

Säähavainnot ja -ennusteet yli 4000 lentoasemalta (METAR- ja TAF-raportit).

Käytössä olevat sääasemat on merkitty karttaan keltaisilla ja punaisilla pisteillä.

Aseta hiiri pisteen päälle nähdäksesi sääaseman nimen.

Klikkaa sitten nähdäksesi säähavainnot ja -ennusteet.

Kartan vaihtaminen: klikkaa mustalla rastilla varustettuja vihreitä pisteitä, niin voit zoomata sisään; viivalla varustettua vihreää pistettä, niin voit zoomata ulos tai vihreitä nuolia, niin pääset viereisille kartoille.


METAR-TAF: